createdAt,value
2022-10-08T00:06:24.574Z,100975.06
2022-10-08T00:16:29.732Z,100970.00
2022-10-08T00:26:42.638Z,100961.28
2022-10-08T00:36:47.482Z,100974.34
2022-10-08T00:46:52.205Z,100967.06
2022-10-08T00:56:56.316Z,100964.28
2022-10-08T01:07:12.433Z,100963.97
2022-10-08T01:17:24.251Z,100961.28
2022-10-08T01:27:33.844Z,100963.25
2022-10-08T01:37:40.273Z,100955.53
2022-10-08T01:47:47.045Z,100952.53
2022-10-08T01:57:51.566Z,100942.38
2022-10-08T02:07:56.463Z,100941.84
2022-10-08T02:18:08.050Z,100942.69
2022-10-08T02:28:19.503Z,100943.50
2022-10-08T02:38:27.519Z,100942.56
2022-10-08T02:48:34.170Z,100924.81
2022-10-08T02:58:37.186Z,100925.97
2022-10-08T03:08:44.512Z,100931.88
2022-10-08T03:18:48.019Z,100934.34
2022-10-08T03:28:53.219Z,100929.19
2022-10-08T03:38:56.359Z,100937.63
2022-10-08T03:49:00.638Z,100934.63
2022-10-08T03:59:03.756Z,100933.28
2022-10-08T04:09:08.012Z,100946.13
2022-10-08T04:19:12.167Z,100955.59
2022-10-08T04:29:16.582Z,100958.94
2022-10-08T04:39:19.350Z,100966.41
2022-10-08T04:49:24.769Z,100972.31
2022-10-08T04:59:27.621Z,100993.78
2022-10-08T05:09:31.871Z,100996.13
2022-10-08T05:19:35.533Z,100995.09
2022-10-08T05:29:39.805Z,100992.88
2022-10-08T05:39:42.849Z,101009.47
2022-10-08T05:49:46.872Z,101030.13
2022-10-08T05:59:49.761Z,101037.69
2022-10-08T06:09:54.072Z,101035.44
2022-10-08T06:19:57.038Z,101037.94
2022-10-08T06:30:01.291Z,101048.84
2022-10-08T06:40:04.553Z,101067.69
2022-10-08T06:50:09.266Z,101081.78
2022-10-08T07:00:12.991Z,101093.56
2022-10-08T07:10:18.591Z,101112.75
2022-10-08T07:20:21.797Z,101131.91
2022-10-08T07:30:27.949Z,101149.34
2022-10-08T07:40:31.047Z,101155.53
2022-10-08T07:50:35.231Z,101173.34
2022-10-08T08:00:39.994Z,101197.34
2022-10-08T08:10:44.522Z,101205.00
2022-10-08T08:20:47.412Z,101223.91
2022-10-08T08:30:51.682Z,101247.63
2022-10-08T08:40:57.333Z,101249.53
2022-10-08T08:51:04.403Z,101262.94
2022-10-08T09:01:18.499Z,101268.56
2022-10-08T09:11:25.102Z,101278.56
2022-10-08T09:21:31.305Z,101285.56
2022-10-08T09:31:42.515Z,101290.25
2022-10-08T09:41:46.169Z,101297.25
2022-10-08T09:51:51.885Z,101303.81
2022-10-08T10:01:55.110Z,101306.41
2022-10-08T10:12:04.927Z,101318.75
2022-10-08T10:22:15.094Z,101336.41
2022-10-08T10:32:23.902Z,101336.78
2022-10-08T10:42:34.174Z,101343.66
2022-10-08T10:52:52.333Z,101337.78
2022-10-08T11:03:00.039Z,101342.59
2022-10-08T11:13:17.962Z,101344.88
2022-10-08T11:23:39.530Z,101356.81
2022-10-08T11:33:45.783Z,101353.16
2022-10-08T11:43:55.739Z,101340.53
2022-10-08T11:54:08.135Z,101344.56
2022-10-08T12:04:20.936Z,101342.94
2022-10-08T12:14:49.457Z,101350.81
2022-10-08T12:24:55.844Z,101343.88
2022-10-08T12:35:04.788Z,101345.09
2022-10-08T12:45:14.379Z,101346.47
2022-10-08T12:55:22.586Z,101348.50
2022-10-08T13:05:27.752Z,101350.06
2022-10-08T13:15:33.564Z,101366.53
2022-10-08T13:25:38.686Z,101365.94
2022-10-08T13:35:44.158Z,101375.03
2022-10-08T13:45:47.183Z,101388.53
2022-10-08T13:55:51.754Z,101395.91
2022-10-08T14:05:54.744Z,101395.72
2022-10-08T14:15:59.038Z,101402.25
2022-10-08T14:26:01.928Z,101404.25
2022-10-08T14:36:08.657Z,101403.16
2022-10-08T14:46:11.593Z,101408.91
2022-10-08T14:56:15.911Z,101404.44
2022-10-08T15:06:18.875Z,101407.88
2022-10-08T15:16:23.351Z,101410.25
2022-10-08T15:26:27.038Z,101409.19
2022-10-08T15:36:33.136Z,101420.81
2022-10-08T15:46:36.231Z,101419.72
2022-10-08T15:56:40.699Z,101434.72
2022-10-08T16:06:45.294Z,101438.19
2022-10-08T16:16:50.178Z,101443.41
2022-10-08T16:26:53.506Z,101455.50
2022-10-08T16:36:59.669Z,101464.72
2022-10-08T16:47:02.664Z,101484.31
2022-10-08T16:57:06.999Z,101500.66
2022-10-08T17:07:09.803Z,101516.59
2022-10-08T17:17:14.796Z,101535.94
2022-10-08T17:27:17.776Z,101561.66
2022-10-08T17:37:21.931Z,101578.59
2022-10-08T17:47:29.047Z,101584.63
2022-10-08T17:57:33.594Z,101600.41
2022-10-08T18:07:36.521Z,101606.00
2022-10-08T18:17:40.911Z,101616.53
2022-10-08T18:27:43.799Z,101625.53
2022-10-08T18:37:48.630Z,101640.03
2022-10-08T18:47:51.553Z,101646.28
2022-10-08T18:57:56.139Z,101658.94
2022-10-08T19:07:59.103Z,101668.44
2022-10-08T19:18:03.632Z,101673.34
2022-10-08T19:28:06.597Z,101683.38
2022-10-08T19:38:11.123Z,101688.84
2022-10-08T19:48:14.110Z,101693.25
2022-10-08T19:58:18.592Z,101699.25
2022-10-08T20:08:21.613Z,101715.03
2022-10-08T20:18:25.730Z,101721.16
2022-10-08T20:28:28.734Z,101727.88
2022-10-08T20:38:33.144Z,101732.44
2022-10-08T20:48:37.604Z,101739.00
2022-10-08T20:58:42.264Z,101744.38
2022-10-08T21:08:47.412Z,101750.88
2022-10-08T21:18:53.069Z,101746.56
2022-10-08T21:28:57.837Z,101765.38
2022-10-08T21:39:03.853Z,101758.63
2022-10-08T21:49:09.854Z,101769.94
2022-10-08T21:59:16.482Z,101764.75
2022-10-08T22:09:22.293Z,101768.31
2022-10-08T22:19:26.670Z,101766.16
2022-10-08T22:29:29.431Z,101765.34
2022-10-08T22:39:33.569Z,101758.59
2022-10-08T22:49:36.604Z,101757.63
2022-10-08T22:59:41.050Z,101755.91
2022-10-08T23:09:43.837Z,101752.63
2022-10-08T23:19:48.094Z,101750.88
2022-10-08T23:29:51.057Z,101737.75
2022-10-08T23:39:57.918Z,101747.00
2022-10-08T23:50:01.122Z,101752.16
